sensor_id;sensor_type;location;lat;lon;timestamp;pressure;altitude;pressure_sealevel;temperature
15607;BMP180;7865;50.918;4.510;2022-11-03T00:01:41;100920.00;;;12.10
15607;BMP180;7865;50.918;4.510;2022-11-03T00:06:46;100909.00;;;12.00
15607;BMP180;7865;50.918;4.510;2022-11-03T00:11:49;100909.00;;;12.10
15607;BMP180;7865;50.918;4.510;2022-11-03T00:16:51;100901.00;;;12.10
15607;BMP180;7865;50.918;4.510;2022-11-03T00:21:53;100907.00;;;12.10
15607;BMP180;7865;50.918;4.510;2022-11-03T00:26:55;100905.00;;;12.10
15607;BMP180;7865;50.918;4.510;2022-11-03T00:31:57;100893.00;;;12.00
15607;BMP180;7865;50.918;4.510;2022-11-03T00:36:59;100875.00;;;12.00
15607;BMP180;7865;50.918;4.510;2022-11-03T00:42:01;100878.00;;;12.00
15607;BMP180;7865;50.918;4.510;2022-11-03T00:47:03;100882.00;;;11.90
15607;BMP180;7865;50.918;4.510;2022-11-03T00:52:04;100874.00;;;11.90
15607;BMP180;7865;50.918;4.510;2022-11-03T00:57:06;100856.00;;;11.90
15607;BMP180;7865;50.918;4.510;2022-11-03T01:02:08;100844.00;;;12.00
15607;BMP180;7865;50.918;4.510;2022-11-03T01:07:10;100844.00;;;12.00
15607;BMP180;7865;50.918;4.510;2022-11-03T01:12:15;100831.00;;;12.00
15607;BMP180;7865;50.918;4.510;2022-11-03T01:17:19;100821.00;;;12.00
15607;BMP180;7865;50.918;4.510;2022-11-03T01:22:22;100819.00;;;12.00
15607;BMP180;7865;50.918;4.510;2022-11-03T01:27:24;100808.00;;;11.90
15607;BMP180;7865;50.918;4.510;2022-11-03T01:32:26;100803.00;;;11.90
15607;BMP180;7865;50.918;4.510;2022-11-03T01:37:28;100812.00;;;11.90
15607;BMP180;7865;50.918;4.510;2022-11-03T01:42:30;100795.00;;;11.80
15607;BMP180;7865;50.918;4.510;2022-11-03T01:47:33;100787.00;;;11.90
15607;BMP180;7865;50.918;4.510;2022-11-03T01:52:41;100792.00;;;11.80
15607;BMP180;7865;50.918;4.510;2022-11-03T01:57:54;100791.00;;;11.80
15607;BMP180;7865;50.918;4.510;2022-11-03T02:02:59;100781.00;;;11.80
15607;BMP180;7865;50.918;4.510;2022-11-03T02:08:07;100786.00;;;11.80
15607;BMP180;7865;50.918;4.510;2022-11-03T02:13:23;100770.00;;;11.80
15607;BMP180;7865;50.918;4.510;2022-11-03T02:18:29;100769.00;;;11.80
15607;BMP180;7865;50.918;4.510;2022-11-03T02:23:39;100745.00;;;11.80
15607;BMP180;7865;50.918;4.510;2022-11-03T02:28:44;100749.00;;;11.80
15607;BMP180;7865;50.918;4.510;2022-11-03T02:39:33;100720.00;;;11.90
15607;BMP180;7865;50.918;4.510;2022-11-03T02:44:37;100708.00;;;11.90
15607;BMP180;7865;50.918;4.510;2022-11-03T02:49:48;100707.00;;;11.90
15607;BMP180;7865;50.918;4.510;2022-11-03T02:54:51;100691.00;;;11.90
15607;BMP180;7865;50.918;4.510;2022-11-03T03:00:02;100696.00;;;11.90
15607;BMP180;7865;50.918;4.510;2022-11-03T03:05:07;100684.00;;;12.00
15607;BMP180;7865;50.918;4.510;2022-11-03T03:15:19;100673.00;;;12.00
15607;BMP180;7865;50.918;4.510;2022-11-03T03:21:12;100665.00;;;12.00
15607;BMP180;7865;50.918;4.510;2022-11-03T03:25:51;100667.00;;;12.10
15607;BMP180;7865;50.918;4.510;2022-11-03T03:30:56;100655.00;;;12.10
15607;BMP180;7865;50.918;4.510;2022-11-03T03:36:02;100649.00;;;12.10
15607;BMP180;7865;50.918;4.510;2022-11-03T03:41:06;100640.00;;;12.20
15607;BMP180;7865;50.918;4.510;2022-11-03T03:46:12;100633.00;;;12.20
15607;BMP180;7865;50.918;4.510;2022-11-03T03:51:17;100627.00;;;12.10
15607;BMP180;7865;50.918;4.510;2022-11-03T03:56:29;100620.00;;;12.20
15607;BMP180;7865;50.918;4.510;2022-11-03T04:01:33;100610.00;;;12.20
15607;BMP180;7865;50.918;4.510;2022-11-03T04:06:35;100606.00;;;12.20
15607;BMP180;7865;50.918;4.510;2022-11-03T04:11:37;100595.00;;;12.20
15607;BMP180;7865;50.918;4.510;2022-11-03T04:16:58;100592.00;;;12.20
15607;BMP180;7865;50.918;4.510;2022-11-03T04:22:18;100572.00;;;12.20
15607;BMP180;7865;50.918;4.510;2022-11-03T04:27:29;100568.00;;;12.20
15607;BMP180;7865;50.918;4.510;2022-11-03T04:32:32;100564.00;;;12.10
15607;BMP180;7865;50.918;4.510;2022-11-03T04:37:35;100555.00;;;12.10
15607;BMP180;7865;50.918;4.510;2022-11-03T04:42:36;100557.00;;;12.10
15607;BMP180;7865;50.918;4.510;2022-11-03T04:47:38;100543.00;;;12.20
15607;BMP180;7865;50.918;4.510;2022-11-03T04:52:40;100548.00;;;12.20
15607;BMP180;7865;50.918;4.510;2022-11-03T04:57:43;100542.00;;;12.30
15607;BMP180;7865;50.918;4.510;2022-11-03T05:02:47;100541.00;;;12.40
15607;BMP180;7865;50.918;4.510;2022-11-03T05:07:57;100531.00;;;12.40
15607;BMP180;7865;50.918;4.510;2022-11-03T05:12:59;100513.00;;;12.50
15607;BMP180;7865;50.918;4.510;2022-11-03T05:18:29;100503.00;;;12.50
15607;BMP180;7865;50.918;4.510;2022-11-03T05:23:38;100486.00;;;12.40
15607;BMP180;7865;50.918;4.510;2022-11-03T05:28:41;100476.00;;;12.40
15607;BMP180;7865;50.918;4.510;2022-11-03T05:33:45;100472.00;;;12.50
15607;BMP180;7865;50.918;4.510;2022-11-03T05:38:49;100470.00;;;12.50
15607;BMP180;7865;50.918;4.510;2022-11-03T05:49:19;100449.00;;;12.40
15607;BMP180;7865;50.918;4.510;2022-11-03T05:54:24;100447.00;;;12.30
15607;BMP180;7865;50.918;4.510;2022-11-03T05:59:28;100434.00;;;12.30
15607;BMP180;7865;50.918;4.510;2022-11-03T06:04:33;100425.00;;;12.30
15607;BMP180;7865;50.918;4.510;2022-11-03T06:09:38;100408.00;;;12.30
15607;BMP180;7865;50.918;4.510;2022-11-03T06:14:40;100401.00;;;12.30
15607;BMP180;7865;50.918;4.510;2022-11-03T06:19:44;100392.00;;;12.20
15607;BMP180;7865;50.918;4.510;2022-11-03T06:24:49;100382.00;;;12.20
15607;BMP180;7865;50.918;4.510;2022-11-03T06:29:56;100372.00;;;12.30
15607;BMP180;7865;50.918;4.510;2022-11-03T06:34:59;100367.00;;;12.30
15607;BMP180;7865;50.918;4.510;2022-11-03T06:45:25;100375.00;;;12.30
15607;BMP180;7865;50.918;4.510;2022-11-03T06:50:30;100373.00;;;12.30
15607;BMP180;7865;50.918;4.510;2022-11-03T06:55:33;100379.00;;;12.40
15607;BMP180;7865;50.918;4.510;2022-11-03T07:00:38;100394.00;;;12.40
15607;BMP180;7865;50.918;4.510;2022-11-03T07:05:43;100390.00;;;12.40
15607;BMP180;7865;50.918;4.510;2022-11-03T07:10:50;100379.00;;;12.50
15607;BMP180;7865;50.918;4.510;2022-11-03T07:15:52;100382.00;;;12.60
15607;BMP180;7865;50.918;4.510;2022-11-03T07:20:54;100366.00;;;12.70
15607;BMP180;7865;50.918;4.510;2022-11-03T07:26:01;100371.00;;;12.70
15607;BMP180;7865;50.918;4.510;2022-11-03T07:31:14;100350.00;;;12.70
15607;BMP180;7865;50.918;4.510;2022-11-03T07:36:19;100332.00;;;12.80
15607;BMP180;7865;50.918;4.510;2022-11-03T07:41:26;100334.00;;;12.80
15607;BMP180;7865;50.918;4.510;2022-11-03T07:46:35;100331.00;;;12.90
15607;BMP180;7865;50.918;4.510;2022-11-03T07:51:37;100316.00;;;12.80
15607;BMP180;7865;50.918;4.510;2022-11-03T07:56:47;100318.00;;;12.80
15607;BMP180;7865;50.918;4.510;2022-11-03T08:01:52;100295.00;;;12.90
15607;BMP180;7865;50.918;4.510;2022-11-03T08:06:55;100299.00;;;13.00
15607;BMP180;7865;50.918;4.510;2022-11-03T08:11:57;100293.00;;;13.10
15607;BMP180;7865;50.918;4.510;2022-11-03T08:16:59;100271.00;;;13.20
15607;BMP180;7865;50.918;4.510;2022-11-03T08:22:01;100257.00;;;13.30
15607;BMP180;7865;50.918;4.510;2022-11-03T08:27:03;100251.00;;;13.40
15607;BMP180;7865;50.918;4.510;2022-11-03T08:32:05;100244.00;;;13.40
15607;BMP180;7865;50.918;4.510;2022-11-03T08:37:07;100227.00;;;13.50
15607;BMP180;7865;50.918;4.510;2022-11-03T08:42:09;100203.00;;;13.50
15607;BMP180;7865;50.918;4.510;2022-11-03T08:47:11;100192.00;;;13.50
15607;BMP180;7865;50.918;4.510;2022-11-03T08:52:12;100173.00;;;13.40
15607;BMP180;7865;50.918;4.510;2022-11-03T08:57:14;100162.00;;;13.30
15607;BMP180;7865;50.918;4.510;2022-11-03T09:02:16;100152.00;;;13.20
15607;BMP180;7865;50.918;4.510;2022-11-03T09:07:19;100148.00;;;13.20
15607;BMP180;7865;50.918;4.510;2022-11-03T09:12:21;100135.00;;;13.20
15607;BMP180;7865;50.918;4.510;2022-11-03T09:17:23;100129.00;;;13.20
15607;BMP180;7865;50.918;4.510;2022-11-03T09:22:25;100120.00;;;13.30
15607;BMP180;7865;50.918;4.510;2022-11-03T09:27:27;100108.00;;;13.60
15607;BMP180;7865;50.918;4.510;2022-11-03T09:32:30;100085.00;;;14.00
15607;BMP180;7865;50.918;4.510;2022-11-03T09:37:32;100074.00;;;14.60
15607;BMP180;7865;50.918;4.510;2022-11-03T09:42:34;100064.00;;;15.10
15607;BMP180;7865;50.918;4.510;2022-11-03T09:47:39;100053.00;;;15.60
15607;BMP180;7865;50.918;4.510;2022-11-03T09:52:42;100052.00;;;15.80
15607;BMP180;7865;50.918;4.510;2022-11-03T09:57:53;100036.00;;;16.00
15607;BMP180;7865;50.918;4.510;2022-11-03T10:02:56;100037.00;;;16.10
15607;BMP180;7865;50.918;4.510;2022-11-03T10:08:00;100049.00;;;16.20
15607;BMP180;7865;50.918;4.510;2022-11-03T10:13:04;100035.00;;;16.30
15607;BMP180;7865;50.918;4.510;2022-11-03T10:18:10;100029.00;;;16.10
15607;BMP180;7865;50.918;4.510;2022-11-03T10:23:12;100009.00;;;15.80
15607;BMP180;7865;50.918;4.510;2022-11-03T10:34:22;100005.00;;;15.60
15607;BMP180;7865;50.918;4.510;2022-11-03T10:38:48;99992.00;;;15.80
15607;BMP180;7865;50.918;4.510;2022-11-03T10:49:17;99981.00;;;16.20
15607;BMP180;7865;50.918;4.510;2022-11-03T10:54:22;99962.00;;;16.30
15607;BMP180;7865;50.918;4.510;2022-11-03T10:59:30;99930.00;;;16.40
15607;BMP180;7865;50.918;4.510;2022-11-03T11:04:33;99913.00;;;16.60
15607;BMP180;7865;50.918;4.510;2022-11-03T11:09:35;99903.00;;;16.40
15607;BMP180;7865;50.918;4.510;2022-11-03T11:14:38;99898.00;;;16.40
15607;BMP180;7865;50.918;4.510;2022-11-03T11:20:18;99897.00;;;16.80
15607;BMP180;7865;50.918;4.510;2022-11-03T11:36:24;99855.00;;;17.30
15607;BMP180;7865;50.918;4.510;2022-11-03T11:47:26;99829.00;;;17.90
15607;BMP180;7865;50.918;4.510;2022-11-03T11:52:29;99832.00;;;18.90
15607;BMP180;7865;50.918;4.510;2022-11-03T11:57:33;99817.00;;;18.60
15607;BMP180;7865;50.918;4.510;2022-11-03T12:02:35;99797.00;;;18.00
15607;BMP180;7865;50.918;4.510;2022-11-03T12:07:37;99789.00;;;17.70
15607;BMP180;7865;50.918;4.510;2022-11-03T12:12:39;99783.00;;;17.20
15607;BMP180;7865;50.918;4.510;2022-11-03T12:17:41;99771.00;;;17.00
15607;BMP180;7865;50.918;4.510;2022-11-03T12:22:43;99749.00;;;17.10
15607;BMP180;7865;50.918;4.510;2022-11-03T12:27:45;99740.00;;;16.40
15607;BMP180;7865;50.918;4.510;2022-11-03T12:32:47;99736.00;;;15.90
15607;BMP180;7865;50.918;4.510;2022-11-03T12:37:49;99744.00;;;15.50
15607;BMP180;7865;50.918;4.510;2022-11-03T12:42:51;99731.00;;;14.80
15607;BMP180;7865;50.918;4.510;2022-11-03T12:47:53;99746.00;;;14.30
15607;BMP180;7865;50.918;4.510;2022-11-03T12:52:54;99749.00;;;14.00
15607;BMP180;7865;50.918;4.510;2022-11-03T12:57:56;99722.00;;;13.50
15607;BMP180;7865;50.918;4.510;2022-11-03T13:02:58;99725.00;;;13.30
15607;BMP180;7865;50.918;4.510;2022-11-03T13:08:00;99704.00;;;13.40
15607;BMP180;7865;50.918;4.510;2022-11-03T13:13:02;99687.00;;;13.70
15607;BMP180;7865;50.918;4.510;2022-11-03T13:18:04;99684.00;;;13.40
15607;BMP180;7865;50.918;4.510;2022-11-03T13:23:14;99655.00;;;13.20
15607;BMP180;7865;50.918;4.510;2022-11-03T13:28:20;99656.00;;;13.20
15607;BMP180;7865;50.918;4.510;2022-11-03T13:33:22;99662.00;;;13.40
15607;BMP180;7865;50.918;4.510;2022-11-03T13:38:24;99657.00;;;13.30
15607;BMP180;7865;50.918;4.510;2022-11-03T13:43:26;99641.00;;;13.40
15607;BMP180;7865;50.918;4.510;2022-11-03T13:48:29;99629.00;;;13.70
15607;BMP180;7865;50.918;4.510;2022-11-03T13:53:52;99625.00;;;13.90
15607;BMP180;7865;50.918;4.510;2022-11-03T13:59:13;99628.00;;;13.80
15607;BMP180;7865;50.918;4.510;2022-11-03T14:04:31;99601.00;;;13.70
15607;BMP180;7865;50.918;4.510;2022-11-03T14:09:40;99602.00;;;13.60
15607;BMP180;7865;50.918;4.510;2022-11-03T14:14:42;99590.00;;;13.50
15607;BMP180;7865;50.918;4.510;2022-11-03T14:19:44;99578.00;;;13.40
15607;BMP180;7865;50.918;4.510;2022-11-03T14:24:52;99599.00;;;13.40
15607;BMP180;7865;50.918;4.510;2022-11-03T14:29:54;99584.00;;;13.30
15607;BMP180;7865;50.918;4.510;2022-11-03T14:34:57;99566.00;;;13.30
15607;BMP180;7865;50.918;4.510;2022-11-03T14:39:59;99538.00;;;13.30
15607;BMP180;7865;50.918;4.510;2022-11-03T14:45:00;99531.00;;;13.30
15607;BMP180;7865;50.918;4.510;2022-11-03T14:50:02;99537.00;;;13.10
15607;BMP180;7865;50.918;4.510;2022-11-03T14:55:05;99516.00;;;13.00
15607;BMP180;7865;50.918;4.510;2022-11-03T15:00:08;99511.00;;;12.90
15607;BMP180;7865;50.918;4.510;2022-11-03T15:05:11;99506.00;;;12.90
15607;BMP180;7865;50.918;4.510;2022-11-03T15:10:33;99488.00;;;12.80
15607;BMP180;7865;50.918;4.510;2022-11-03T15:15:35;99487.00;;;12.70
15607;BMP180;7865;50.918;4.510;2022-11-03T15:20:37;99481.00;;;12.60
15607;BMP180;7865;50.918;4.510;2022-11-03T15:25:39;99472.00;;;12.60
15607;BMP180;7865;50.918;4.510;2022-11-03T15:30:41;99473.00;;;12.40
15607;BMP180;7865;50.918;4.510;2022-11-03T15:35:43;99469.00;;;12.30
15607;BMP180;7865;50.918;4.510;2022-11-03T15:40:45;99461.00;;;12.10
15607;BMP180;7865;50.918;4.510;2022-11-03T15:45:47;99441.00;;;12.00
15607;BMP180;7865;50.918;4.510;2022-11-03T15:50:49;99434.00;;;11.90
15607;BMP180;7865;50.918;4.510;2022-11-03T15:55:51;99442.00;;;11.80
15607;BMP180;7865;50.918;4.510;2022-11-03T16:00:52;99438.00;;;11.80
15607;BMP180;7865;50.918;4.510;2022-11-03T16:05:54;99444.00;;;11.70
15607;BMP180;7865;50.918;4.510;2022-11-03T16:10:56;99438.00;;;11.70
15607;BMP180;7865;50.918;4.510;2022-11-03T16:15:59;99430.00;;;11.60
15607;BMP180;7865;50.918;4.510;2022-11-03T16:21:01;99416.00;;;11.60
15607;BMP180;7865;50.918;4.510;2022-11-03T16:26:02;99421.00;;;11.50
15607;BMP180;7865;50.918;4.510;2022-11-03T16:31:06;99401.00;;;11.50
15607;BMP180;7865;50.918;4.510;2022-11-03T16:36:08;99389.00;;;11.50
15607;BMP180;7865;50.918;4.510;2022-11-03T16:41:10;99394.00;;;11.50
15607;BMP180;7865;50.918;4.510;2022-11-03T16:46:12;99385.00;;;11.50
15607;BMP180;7865;50.918;4.510;2022-11-03T16:51:14;99369.00;;;11.40
15607;BMP180;7865;50.918;4.510;2022-11-03T16:56:16;99400.00;;;11.40
15607;BMP180;7865;50.918;4.510;2022-11-03T17:01:17;99395.00;;;11.40
15607;BMP180;7865;50.918;4.510;2022-11-03T17:06:19;99395.00;;;11.40
15607;BMP180;7865;50.918;4.510;2022-11-03T17:11:21;99391.00;;;11.50
15607;BMP180;7865;50.918;4.510;2022-11-03T17:16:39;99374.00;;;11.50
15607;BMP180;7865;50.918;4.510;2022-11-03T17:21:47;99376.00;;;11.50
15607;BMP180;7865;50.918;4.510;2022-11-03T17:27:12;99386.00;;;11.50
15607;BMP180;7865;50.918;4.510;2022-11-03T17:32:16;99389.00;;;11.50
15607;BMP180;7865;50.918;4.510;2022-11-03T17:37:22;99394.00;;;11.50
15607;BMP180;7865;50.918;4.510;2022-11-03T17:42:25;99383.00;;;11.50
15607;BMP180;7865;50.918;4.510;2022-11-03T17:47:27;99399.00;;;11.60
15607;BMP180;7865;50.918;4.510;2022-11-03T17:52:32;99414.00;;;11.60
15607;BMP180;7865;50.918;4.510;2022-11-03T17:57:34;99427.00;;;11.60
15607;BMP180;7865;50.918;4.510;2022-11-03T18:02:39;99417.00;;;11.70
15607;BMP180;7865;50.918;4.510;2022-11-03T18:07:41;99426.00;;;11.70
15607;BMP180;7865;50.918;4.510;2022-11-03T18:12:47;99392.00;;;11.70
15607;BMP180;7865;50.918;4.510;2022-11-03T18:18:13;99401.00;;;11.70
15607;BMP180;7865;50.918;4.510;2022-11-03T18:23:22;99390.00;;;11.70
15607;BMP180;7865;50.918;4.510;2022-11-03T18:28:24;99395.00;;;11.70
15607;BMP180;7865;50.918;4.510;2022-11-03T18:33:34;99390.00;;;11.80
15607;BMP180;7865;50.918;4.510;2022-11-03T18:38:39;99397.00;;;11.80
15607;BMP180;7865;50.918;4.510;2022-11-03T18:43:41;99388.00;;;11.80
15607;BMP180;7865;50.918;4.510;2022-11-03T18:48:43;99406.00;;;11.80
15607;BMP180;7865;50.918;4.510;2022-11-03T18:53:45;99405.00;;;11.80
15607;BMP180;7865;50.918;4.510;2022-11-03T18:58:49;99385.00;;;11.80
15607;BMP180;7865;50.918;4.510;2022-11-03T19:03:52;99401.00;;;11.80
15607;BMP180;7865;50.918;4.510;2022-11-03T19:08:56;99387.00;;;11.80
15607;BMP180;7865;50.918;4.510;2022-11-03T19:14:00;99397.00;;;11.80
15607;BMP180;7865;50.918;4.510;2022-11-03T19:19:02;99385.00;;;11.80
15607;BMP180;7865;50.918;4.510;2022-11-03T19:24:04;99387.00;;;11.80
15607;BMP180;7865;50.918;4.510;2022-11-03T19:29:10;99409.00;;;11.60
15607;BMP180;7865;50.918;4.510;2022-11-03T19:34:19;99410.00;;;11.50
15607;BMP180;7865;50.918;4.510;2022-11-03T19:39:25;99429.00;;;11.30
15607;BMP180;7865;50.918;4.510;2022-11-03T19:44:27;99411.00;;;11.20
15607;BMP180;7865;50.918;4.510;2022-11-03T19:49:29;99411.00;;;11.10
15607;BMP180;7865;50.918;4.510;2022-11-03T19:54:31;99438.00;;;11.00
15607;BMP180;7865;50.918;4.510;2022-11-03T19:59:33;99447.00;;;10.90
15607;BMP180;7865;50.918;4.510;2022-11-03T20:04:35;99461.00;;;10.90
15607;BMP180;7865;50.918;4.510;2022-11-03T20:09:37;99447.00;;;10.80
15607;BMP180;7865;50.918;4.510;2022-11-03T20:14:39;99465.00;;;10.70
15607;BMP180;7865;50.918;4.510;2022-11-03T20:19:41;99495.00;;;10.50
15607;BMP180;7865;50.918;4.510;2022-11-03T20:24:44;99500.00;;;10.40
15607;BMP180;7865;50.918;4.510;2022-11-03T20:29:47;99498.00;;;10.30
15607;BMP180;7865;50.918;4.510;2022-11-03T20:34:49;99505.00;;;10.30
15607;BMP180;7865;50.918;4.510;2022-11-03T20:39:51;99515.00;;;10.20
15607;BMP180;7865;50.918;4.510;2022-11-03T20:44:53;99545.00;;;10.10
15607;BMP180;7865;50.918;4.510;2022-11-03T20:49:55;99571.00;;;10.00
15607;BMP180;7865;50.918;4.510;2022-11-03T20:54:57;99569.00;;;10.00
15607;BMP180;7865;50.918;4.510;2022-11-03T20:59:59;99572.00;;;10.00
15607;BMP180;7865;50.918;4.510;2022-11-03T21:05:01;99557.00;;;10.00
15607;BMP180;7865;50.918;4.510;2022-11-03T21:10:03;99566.00;;;10.00
15607;BMP180;7865;50.918;4.510;2022-11-03T21:20:33;99575.00;;;10.10
15607;BMP180;7865;50.918;4.510;2022-11-03T21:25:35;99589.00;;;10.20
15607;BMP180;7865;50.918;4.510;2022-11-03T21:30:37;99603.00;;;10.10
15607;BMP180;7865;50.918;4.510;2022-11-03T21:35:43;99605.00;;;10.10
15607;BMP180;7865;50.918;4.510;2022-11-03T21:40:50;99612.00;;;10.10
15607;BMP180;7865;50.918;4.510;2022-11-03T21:46:07;99612.00;;;10.10
15607;BMP180;7865;50.918;4.510;2022-11-03T21:51:09;99609.00;;;10.10
15607;BMP180;7865;50.918;4.510;2022-11-03T21:56:12;99615.00;;;10.20
15607;BMP180;7865;50.918;4.510;2022-11-03T22:01:16;99624.00;;;10.20
15607;BMP180;7865;50.918;4.510;2022-11-03T22:06:18;99618.00;;;10.30
15607;BMP180;7865;50.918;4.510;2022-11-03T22:11:20;99620.00;;;10.20
15607;BMP180;7865;50.918;4.510;2022-11-03T22:16:23;99626.00;;;10.10
15607;BMP180;7865;50.918;4.510;2022-11-03T22:21:37;99653.00;;;9.90
15607;BMP180;7865;50.918;4.510;2022-11-03T22:26:58;99654.00;;;9.80
15607;BMP180;7865;50.918;4.510;2022-11-03T22:32:01;99675.00;;;9.70
15607;BMP180;7865;50.918;4.510;2022-11-03T22:37:02;99696.00;;;9.70
15607;BMP180;7865;50.918;4.510;2022-11-03T22:42:04;99690.00;;;9.70
15607;BMP180;7865;50.918;4.510;2022-11-03T22:47:25;99686.00;;;9.70
15607;BMP180;7865;50.918;4.510;2022-11-03T22:52:27;99687.00;;;9.60
15607;BMP180;7865;50.918;4.510;2022-11-03T22:57:29;99680.00;;;9.60
15607;BMP180;7865;50.918;4.510;2022-11-03T23:02:31;99686.00;;;9.50
15607;BMP180;7865;50.918;4.510;2022-11-03T23:07:34;99674.00;;;9.50
15607;BMP180;7865;50.918;4.510;2022-11-03T23:12:42;99660.00;;;9.40
15607;BMP180;7865;50.918;4.510;2022-11-03T23:17:43;99669.00;;;9.30
15607;BMP180;7865;50.918;4.510;2022-11-03T23:23:08;99680.00;;;9.20
15607;BMP180;7865;50.918;4.510;2022-11-03T23:28:33;99685.00;;;9.10
15607;BMP180;7865;50.918;4.510;2022-11-03T23:33:35;99690.00;;;9.10
15607;BMP180;7865;50.918;4.510;2022-11-03T23:38:37;99695.00;;;9.10
15607;BMP180;7865;50.918;4.510;2022-11-03T23:43:41;99695.00;;;9.00
15607;BMP180;7865;50.918;4.510;2022-11-03T23:48:43;99689.00;;;9.10
15607;BMP180;7865;50.918;4.510;2022-11-03T23:53:48;99695.00;;;9.10
15607;BMP180;7865;50.918;4.510;2022-11-03T23:58:50;99711.00;;;9.00
